sensor_id;sensor_type;location;lat;lon;timestamp;P1;durP1;ratioP1;P2;durP2;ratioP2
78549;SDS011;68091;52.130;5.570;2023-03-19T00:01:07;3.85;;;2.83;;
78549;SDS011;68091;52.130;5.570;2023-03-19T00:03:33;7.40;;;3.65;;
78549;SDS011;68091;52.130;5.570;2023-03-19T00:06:00;5.07;;;3.10;;
78549;SDS011;68091;52.130;5.570;2023-03-19T00:08:26;5.20;;;3.25;;
78549;SDS011;68091;52.130;5.570;2023-03-19T00:10:52;5.47;;;3.30;;
78549;SDS011;68091;52.130;5.570;2023-03-19T00:13:18;7.07;;;3.47;;
78549;SDS011;68091;52.130;5.570;2023-03-19T00:15:44;7.28;;;3.58;;
78549;SDS011;68091;52.130;5.570;2023-03-19T00:18:11;6.75;;;3.58;;
78549;SDS011;68091;52.130;5.570;2023-03-19T00:20:40;7.70;;;4.22;;
78549;SDS011;68091;52.130;5.570;2023-03-19T00:23:05;4.07;;;3.63;;
78549;SDS011;68091;52.130;5.570;2023-03-19T00:25:31;7.60;;;3.85;;
78549;SDS011;68091;52.130;5.570;2023-03-19T00:27:57;6.15;;;3.75;;
78549;SDS011;68091;52.130;5.570;2023-03-19T00:30:23;6.75;;;3.85;;
78549;SDS011;68091;52.130;5.570;2023-03-19T00:32:49;5.30;;;4.38;;
78549;SDS011;68091;52.130;5.570;2023-03-19T00:35:15;6.10;;;4.18;;
78549;SDS011;68091;52.130;5.570;2023-03-19T00:37:41;6.30;;;3.63;;
78549;SDS011;68091;52.130;5.570;2023-03-19T00:40:07;6.32;;;3.75;;
78549;SDS011;68091;52.130;5.570;2023-03-19T00:42:34;6.85;;;3.80;;
78549;SDS011;68091;52.130;5.570;2023-03-19T00:45:03;4.30;;;3.42;;
78549;SDS011;68091;52.130;5.570;2023-03-19T00:47:29;5.57;;;3.90;;
78549;SDS011;68091;52.130;5.570;2023-03-19T00:49:55;6.28;;;4.30;;
78549;SDS011;68091;52.130;5.570;2023-03-19T00:52:28;5.47;;;3.20;;
78549;SDS011;68091;52.130;5.570;2023-03-19T00:54:54;5.35;;;3.63;;
78549;SDS011;68091;52.130;5.570;2023-03-19T00:57:20;5.35;;;3.60;;
78549;SDS011;68091;52.130;5.570;2023-03-19T00:59:46;7.28;;;3.92;;
78549;SDS011;68091;52.130;5.570;2023-03-19T01:02:12;5.35;;;3.28;;
78549;SDS011;68091;52.130;5.570;2023-03-19T01:04:37;7.15;;;3.58;;
78549;SDS011;68091;52.130;5.570;2023-03-19T01:07:03;5.22;;;3.90;;
78549;SDS011;68091;52.130;5.570;2023-03-19T01:09:29;6.75;;;3.92;;
78549;SDS011;68091;52.130;5.570;2023-03-19T01:11:55;6.45;;;3.92;;
78549;SDS011;68091;52.130;5.570;2023-03-19T01:14:29;8.43;;;4.10;;
78549;SDS011;68091;52.130;5.570;2023-03-19T01:16:56;3.85;;;3.45;;
78549;SDS011;68091;52.130;5.570;2023-03-19T01:19:22;4.70;;;3.53;;
78549;SDS011;68091;52.130;5.570;2023-03-19T01:21:48;5.60;;;3.80;;
78549;SDS011;68091;52.130;5.570;2023-03-19T01:24:14;6.25;;;3.95;;
78549;SDS011;68091;52.130;5.570;2023-03-19T01:26:41;5.35;;;4.05;;
78549;SDS011;68091;52.130;5.570;2023-03-19T01:29:07;5.35;;;3.78;;
78549;SDS011;68091;52.130;5.570;2023-03-19T01:31:33;5.43;;;3.58;;
78549;SDS011;68091;52.130;5.570;2023-03-19T01:33:59;5.50;;;3.53;;
78549;SDS011;68091;52.130;5.570;2023-03-19T01:36:26;5.85;;;4.35;;
78549;SDS011;68091;52.130;5.570;2023-03-19T01:38:52;4.30;;;3.88;;
78549;SDS011;68091;52.130;5.570;2023-03-19T01:41:18;6.28;;;4.65;;
78549;SDS011;68091;52.130;5.570;2023-03-19T01:43:44;5.40;;;4.60;;
78549;SDS011;68091;52.130;5.570;2023-03-19T01:49:02;8.98;;;4.78;;
78549;SDS011;68091;52.130;5.570;2023-03-19T01:51:32;6.70;;;4.50;;
78549;SDS011;68091;52.130;5.570;2023-03-19T01:54:03;6.50;;;4.50;;
78549;SDS011;68091;52.130;5.570;2023-03-19T01:56:35;7.45;;;4.47;;
78549;SDS011;68091;52.130;5.570;2023-03-19T01:59:05;11.13;;;5.43;;
78549;SDS011;68091;52.130;5.570;2023-03-19T02:01:41;8.18;;;5.20;;
78549;SDS011;68091;52.130;5.570;2023-03-19T02:04:14;7.43;;;5.07;;
78549;SDS011;68091;52.130;5.570;2023-03-19T02:06:40;7.15;;;5.18;;
78549;SDS011;68091;52.130;5.570;2023-03-19T02:09:07;6.47;;;5.38;;
78549;SDS011;68091;52.130;5.570;2023-03-19T02:11:34;8.98;;;6.35;;
78549;SDS011;68091;52.130;5.570;2023-03-19T02:14:01;7.88;;;5.35;;
78549;SDS011;68091;52.130;5.570;2023-03-19T02:16:27;8.07;;;5.90;;
78549;SDS011;68091;52.130;5.570;2023-03-19T02:18:53;8.40;;;5.88;;
78549;SDS011;68091;52.130;5.570;2023-03-19T02:21:20;8.65;;;6.15;;
78549;SDS011;68091;52.130;5.570;2023-03-19T02:26:28;9.77;;;6.40;;
78549;SDS011;68091;52.130;5.570;2023-03-19T02:28:54;7.35;;;5.75;;
78549;SDS011;68091;52.130;5.570;2023-03-19T02:31:21;5.78;;;4.95;;
78549;SDS011;68091;52.130;5.570;2023-03-19T02:36:24;7.03;;;5.20;;
78549;SDS011;68091;52.130;5.570;2023-03-19T02:39:02;7.75;;;5.80;;
78549;SDS011;68091;52.130;5.570;2023-03-19T02:41:30;9.00;;;5.50;;
78549;SDS011;68091;52.130;5.570;2023-03-19T02:43:58;6.43;;;5.13;;
78549;SDS011;68091;52.130;5.570;2023-03-19T02:46:27;6.85;;;5.25;;
78549;SDS011;68091;52.130;5.570;2023-03-19T02:48:53;7.05;;;5.78;;
78549;SDS011;68091;52.130;5.570;2023-03-19T02:51:19;7.95;;;5.15;;
78549;SDS011;68091;52.130;5.570;2023-03-19T02:53:45;6.80;;;5.05;;
78549;SDS011;68091;52.130;5.570;2023-03-19T02:56:10;7.63;;;5.18;;
78549;SDS011;68091;52.130;5.570;2023-03-19T02:58:36;7.88;;;5.70;;
78549;SDS011;68091;52.130;5.570;2023-03-19T03:01:02;9.48;;;6.13;;
78549;SDS011;68091;52.130;5.570;2023-03-19T03:03:28;7.68;;;5.43;;
78549;SDS011;68091;52.130;5.570;2023-03-19T03:05:54;8.43;;;6.10;;
78549;SDS011;68091;52.130;5.570;2023-03-19T03:08:20;11.00;;;6.15;;
78549;SDS011;68091;52.130;5.570;2023-03-19T03:10:47;10.10;;;5.80;;
78549;SDS011;68091;52.130;5.570;2023-03-19T03:13:13;7.53;;;5.25;;
78549;SDS011;68091;52.130;5.570;2023-03-19T03:15:39;11.00;;;6.82;;
78549;SDS011;68091;52.130;5.570;2023-03-19T03:18:04;7.70;;;6.40;;
78549;SDS011;68091;52.130;5.570;2023-03-19T03:20:30;8.38;;;6.00;;
78549;SDS011;68091;52.130;5.570;2023-03-19T03:22:57;8.88;;;6.80;;
78549;SDS011;68091;52.130;5.570;2023-03-19T03:25:22;8.90;;;6.53;;
78549;SDS011;68091;52.130;5.570;2023-03-19T03:27:48;8.05;;;6.13;;
78549;SDS011;68091;52.130;5.570;2023-03-19T03:30:17;8.82;;;7.25;;
78549;SDS011;68091;52.130;5.570;2023-03-19T03:32:43;10.45;;;6.43;;
78549;SDS011;68091;52.130;5.570;2023-03-19T03:35:08;8.57;;;6.82;;
78549;SDS011;68091;52.130;5.570;2023-03-19T03:37:35;8.80;;;7.13;;
78549;SDS011;68091;52.130;5.570;2023-03-19T03:40:02;10.70;;;7.57;;
78549;SDS011;68091;52.130;5.570;2023-03-19T03:42:32;10.25;;;7.45;;
78549;SDS011;68091;52.130;5.570;2023-03-19T03:45:00;9.68;;;7.40;;
78549;SDS011;68091;52.130;5.570;2023-03-19T03:47:29;9.45;;;7.43;;
78549;SDS011;68091;52.130;5.570;2023-03-19T03:49:54;9.77;;;7.03;;
78549;SDS011;68091;52.130;5.570;2023-03-19T03:52:20;12.57;;;8.43;;
78549;SDS011;68091;52.130;5.570;2023-03-19T03:54:46;12.98;;;8.50;;
78549;SDS011;68091;52.130;5.570;2023-03-19T03:57:12;9.68;;;7.30;;
78549;SDS011;68091;52.130;5.570;2023-03-19T03:59:38;9.48;;;7.80;;
78549;SDS011;68091;52.130;5.570;2023-03-19T04:02:03;12.32;;;9.05;;
78549;SDS011;68091;52.130;5.570;2023-03-19T04:04:30;12.45;;;9.02;;
78549;SDS011;68091;52.130;5.570;2023-03-19T04:06:56;17.23;;;10.25;;
78549;SDS011;68091;52.130;5.570;2023-03-19T04:09:22;13.98;;;11.07;;
78549;SDS011;68091;52.130;5.570;2023-03-19T04:11:48;14.20;;;11.35;;
78549;SDS011;68091;52.130;5.570;2023-03-19T04:14:13;14.57;;;11.65;;
78549;SDS011;68091;52.130;5.570;2023-03-19T04:16:39;16.90;;;11.88;;
78549;SDS011;68091;52.130;5.570;2023-03-19T04:19:06;16.00;;;11.88;;
78549;SDS011;68091;52.130;5.570;2023-03-19T04:21:32;15.30;;;11.75;;
78549;SDS011;68091;52.130;5.570;2023-03-19T04:23:58;15.60;;;12.48;;
78549;SDS011;68091;52.130;5.570;2023-03-19T04:26:23;15.25;;;12.57;;
78549;SDS011;68091;52.130;5.570;2023-03-19T04:28:53;13.88;;;11.43;;
78549;SDS011;68091;52.130;5.570;2023-03-19T04:31:18;15.40;;;12.00;;
78549;SDS011;68091;52.130;5.570;2023-03-19T04:33:44;15.82;;;12.50;;
78549;SDS011;68091;52.130;5.570;2023-03-19T04:36:10;16.52;;;12.43;;
78549;SDS011;68091;52.130;5.570;2023-03-19T04:38:36;17.17;;;12.80;;
78549;SDS011;68091;52.130;5.570;2023-03-19T04:41:02;18.45;;;13.00;;
78549;SDS011;68091;52.130;5.570;2023-03-19T04:43:28;20.30;;;13.57;;
78549;SDS011;68091;52.130;5.570;2023-03-19T04:45:54;17.65;;;14.00;;
78549;SDS011;68091;52.130;5.570;2023-03-19T04:48:20;18.02;;;13.48;;
78549;SDS011;68091;52.130;5.570;2023-03-19T04:50:46;19.50;;;14.25;;
78549;SDS011;68091;52.130;5.570;2023-03-19T04:53:15;21.45;;;14.95;;
78549;SDS011;68091;52.130;5.570;2023-03-19T04:55:42;22.58;;;15.88;;
78549;SDS011;68091;52.130;5.570;2023-03-19T04:58:08;20.75;;;15.73;;
78549;SDS011;68091;52.130;5.570;2023-03-19T05:00:34;19.13;;;14.73;;
78549;SDS011;68091;52.130;5.570;2023-03-19T05:03:01;23.40;;;16.27;;
78549;SDS011;68091;52.130;5.570;2023-03-19T05:05:27;24.13;;;16.65;;
78549;SDS011;68091;52.130;5.570;2023-03-19T05:07:53;26.58;;;17.88;;
78549;SDS011;68091;52.130;5.570;2023-03-19T05:10:18;23.20;;;16.77;;
78549;SDS011;68091;52.130;5.570;2023-03-19T05:12:45;24.75;;;18.15;;
78549;SDS011;68091;52.130;5.570;2023-03-19T05:15:10;29.70;;;19.63;;
78549;SDS011;68091;52.130;5.570;2023-03-19T05:17:36;27.88;;;19.35;;
78549;SDS011;68091;52.130;5.570;2023-03-19T05:20:02;28.67;;;19.30;;
78549;SDS011;68091;52.130;5.570;2023-03-19T05:22:29;28.90;;;19.30;;
78549;SDS011;68091;52.130;5.570;2023-03-19T05:24:54;30.00;;;20.73;;
78549;SDS011;68091;52.130;5.570;2023-03-19T05:27:20;30.48;;;20.35;;
78549;SDS011;68091;52.130;5.570;2023-03-19T05:29:46;31.02;;;21.15;;
78549;SDS011;68091;52.130;5.570;2023-03-19T05:32:12;30.35;;;21.38;;
78549;SDS011;68091;52.130;5.570;2023-03-19T05:34:38;27.85;;;19.77;;
78549;SDS011;68091;52.130;5.570;2023-03-19T05:37:04;28.75;;;20.60;;
78549;SDS011;68091;52.130;5.570;2023-03-19T05:39:30;29.58;;;21.13;;
78549;SDS011;68091;52.130;5.570;2023-03-19T05:41:58;33.58;;;19.92;;
78549;SDS011;68091;52.130;5.570;2023-03-19T05:44:24;28.20;;;19.73;;
78549;SDS011;68091;52.130;5.570;2023-03-19T05:46:50;27.25;;;19.10;;
78549;SDS011;68091;52.130;5.570;2023-03-19T05:49:16;28.27;;;20.00;;
78549;SDS011;68091;52.130;5.570;2023-03-19T05:51:41;28.40;;;20.48;;
78549;SDS011;68091;52.130;5.570;2023-03-19T05:54:07;31.15;;;21.05;;
78549;SDS011;68091;52.130;5.570;2023-03-19T05:56:33;30.30;;;20.55;;
78549;SDS011;68091;52.130;5.570;2023-03-19T05:58:59;31.40;;;21.20;;
78549;SDS011;68091;52.130;5.570;2023-03-19T06:01:25;34.97;;;21.90;;
78549;SDS011;68091;52.130;5.570;2023-03-19T06:03:51;29.80;;;20.35;;
78549;SDS011;68091;52.130;5.570;2023-03-19T06:06:17;31.42;;;22.27;;
78549;SDS011;68091;52.130;5.570;2023-03-19T06:08:42;27.73;;;19.65;;
78549;SDS011;68091;52.130;5.570;2023-03-19T06:11:08;33.30;;;21.20;;
78549;SDS011;68091;52.130;5.570;2023-03-19T06:13:34;28.20;;;20.27;;
78549;SDS011;68091;52.130;5.570;2023-03-19T06:16:00;27.95;;;19.70;;
78549;SDS011;68091;52.130;5.570;2023-03-19T06:18:26;28.92;;;21.27;;
78549;SDS011;68091;52.130;5.570;2023-03-19T06:20:52;33.83;;;21.80;;
78549;SDS011;68091;52.130;5.570;2023-03-19T06:23:17;29.92;;;21.80;;
78549;SDS011;68091;52.130;5.570;2023-03-19T06:25:43;39.22;;;22.05;;
78549;SDS011;68091;52.130;5.570;2023-03-19T06:28:09;32.90;;;20.95;;
78549;SDS011;68091;52.130;5.570;2023-03-19T06:30:35;32.17;;;21.10;;
78549;SDS011;68091;52.130;5.570;2023-03-19T06:33:01;27.55;;;20.80;;
78549;SDS011;68091;52.130;5.570;2023-03-19T06:35:27;31.17;;;19.77;;
78549;SDS011;68091;52.130;5.570;2023-03-19T06:37:53;34.30;;;20.10;;
78549;SDS011;68091;52.130;5.570;2023-03-19T06:40:19;32.20;;;20.60;;
78549;SDS011;68091;52.130;5.570;2023-03-19T06:42:45;28.95;;;19.05;;
78549;SDS011;68091;52.130;5.570;2023-03-19T06:45:12;26.35;;;18.67;;
78549;SDS011;68091;52.130;5.570;2023-03-19T06:47:41;24.98;;;18.33;;
78549;SDS011;68091;52.130;5.570;2023-03-19T06:50:08;27.13;;;19.98;;
78549;SDS011;68091;52.130;5.570;2023-03-19T06:52:37;32.28;;;22.10;;
78549;SDS011;68091;52.130;5.570;2023-03-19T06:55:04;39.25;;;25.05;;
78549;SDS011;68091;52.130;5.570;2023-03-19T06:57:31;40.58;;;27.25;;
78549;SDS011;68091;52.130;5.570;2023-03-19T06:59:56;43.08;;;28.65;;
78549;SDS011;68091;52.130;5.570;2023-03-19T07:02:22;44.00;;;29.30;;
78549;SDS011;68091;52.130;5.570;2023-03-19T07:04:48;41.70;;;29.20;;
78549;SDS011;68091;52.130;5.570;2023-03-19T07:07:14;45.70;;;29.02;;
78549;SDS011;68091;52.130;5.570;2023-03-19T07:09:40;41.80;;;27.50;;
78549;SDS011;68091;52.130;5.570;2023-03-19T07:12:06;43.47;;;29.00;;
78549;SDS011;68091;52.130;5.570;2023-03-19T07:14:32;42.10;;;27.70;;
78549;SDS011;68091;52.130;5.570;2023-03-19T07:16:58;38.70;;;27.02;;
78549;SDS011;68091;52.130;5.570;2023-03-19T07:19:24;40.25;;;26.63;;
78549;SDS011;68091;52.130;5.570;2023-03-19T07:21:50;41.50;;;27.35;;
78549;SDS011;68091;52.130;5.570;2023-03-19T07:24:16;46.13;;;26.00;;
78549;SDS011;68091;52.130;5.570;2023-03-19T07:26:45;45.17;;;25.85;;
78549;SDS011;68091;52.130;5.570;2023-03-19T07:29:11;46.67;;;27.27;;
78549;SDS011;68091;52.130;5.570;2023-03-19T07:31:37;51.78;;;29.45;;
78549;SDS011;68091;52.130;5.570;2023-03-19T07:34:03;51.03;;;27.38;;
78549;SDS011;68091;52.130;5.570;2023-03-19T07:36:30;51.83;;;30.42;;
78549;SDS011;68091;52.130;5.570;2023-03-19T07:38:56;62.92;;;38.63;;
78549;SDS011;68091;52.130;5.570;2023-03-19T07:41:22;70.43;;;40.42;;
78549;SDS011;68091;52.130;5.570;2023-03-19T07:43:47;62.60;;;39.45;;
78549;SDS011;68091;52.130;5.570;2023-03-19T07:46:16;70.07;;;38.33;;
78549;SDS011;68091;52.130;5.570;2023-03-19T07:48:42;68.45;;;37.92;;
78549;SDS011;68091;52.130;5.570;2023-03-19T07:51:08;73.38;;;38.15;;
78549;SDS011;68091;52.130;5.570;2023-03-19T07:53:34;74.43;;;38.42;;
78549;SDS011;68091;52.130;5.570;2023-03-19T07:56:00;72.47;;;37.67;;
78549;SDS011;68091;52.130;5.570;2023-03-19T07:58:26;72.47;;;37.80;;
78549;SDS011;68091;52.130;5.570;2023-03-19T08:00:52;68.70;;;36.17;;
78549;SDS011;68091;52.130;5.570;2023-03-19T08:03:18;67.65;;;36.22;;
78549;SDS011;68091;52.130;5.570;2023-03-19T08:05:47;66.43;;;36.63;;
78549;SDS011;68091;52.130;5.570;2023-03-19T08:08:14;64.32;;;36.50;;
78549;SDS011;68091;52.130;5.570;2023-03-19T08:10:46;58.25;;;36.50;;
78549;SDS011;68091;52.130;5.570;2023-03-19T08:13:12;61.42;;;36.05;;
78549;SDS011;68091;52.130;5.570;2023-03-19T08:15:38;60.05;;;35.20;;
78549;SDS011;68091;52.130;5.570;2023-03-19T08:18:04;58.10;;;35.70;;
78549;SDS011;68091;52.130;5.570;2023-03-19T08:20:30;59.05;;;35.28;;
78549;SDS011;68091;52.130;5.570;2023-03-19T08:22:56;61.85;;;37.28;;
78549;SDS011;68091;52.130;5.570;2023-03-19T08:25:23;61.92;;;35.88;;
78549;SDS011;68091;52.130;5.570;2023-03-19T08:27:50;55.47;;;34.30;;
78549;SDS011;68091;52.130;5.570;2023-03-19T08:30:15;54.20;;;34.85;;
78549;SDS011;68091;52.130;5.570;2023-03-19T08:32:41;52.13;;;32.67;;
78549;SDS011;68091;52.130;5.570;2023-03-19T08:35:10;50.28;;;31.67;;
78549;SDS011;68091;52.130;5.570;2023-03-19T08:37:36;52.92;;;31.42;;
78549;SDS011;68091;52.130;5.570;2023-03-19T08:40:02;49.80;;;31.38;;
78549;SDS011;68091;52.130;5.570;2023-03-19T08:42:30;48.55;;;31.67;;
78549;SDS011;68091;52.130;5.570;2023-03-19T08:44:55;50.55;;;32.33;;
78549;SDS011;68091;52.130;5.570;2023-03-19T08:47:21;46.47;;;30.33;;
78549;SDS011;68091;52.130;5.570;2023-03-19T08:49:48;49.72;;;31.10;;
78549;SDS011;68091;52.130;5.570;2023-03-19T08:52:15;42.80;;;28.90;;
78549;SDS011;68091;52.130;5.570;2023-03-19T08:54:44;45.50;;;29.20;;
78549;SDS011;68091;52.130;5.570;2023-03-19T08:57:10;48.83;;;29.52;;
78549;SDS011;68091;52.130;5.570;2023-03-19T08:59:36;44.92;;;28.48;;
78549;SDS011;68091;52.130;5.570;2023-03-19T09:02:02;46.10;;;29.10;;
78549;SDS011;68091;52.130;5.570;2023-03-19T09:04:27;43.60;;;27.25;;
78549;SDS011;68091;52.130;5.570;2023-03-19T09:06:53;44.65;;;29.30;;
78549;SDS011;68091;52.130;5.570;2023-03-19T09:09:21;43.55;;;27.63;;
78549;SDS011;68091;52.130;5.570;2023-03-19T09:11:48;44.45;;;27.40;;
78549;SDS011;68091;52.130;5.570;2023-03-19T09:14:17;41.00;;;25.92;;
78549;SDS011;68091;52.130;5.570;2023-03-19T09:16:44;40.35;;;25.77;;
78549;SDS011;68091;52.130;5.570;2023-03-19T09:19:10;42.63;;;26.02;;
78549;SDS011;68091;52.130;5.570;2023-03-19T09:21:36;42.08;;;25.13;;
78549;SDS011;68091;52.130;5.570;2023-03-19T09:24:02;35.75;;;24.65;;
78549;SDS011;68091;52.130;5.570;2023-03-19T09:26:28;44.80;;;26.85;;
78549;SDS011;68091;52.130;5.570;2023-03-19T09:28:54;37.58;;;25.77;;
78549;SDS011;68091;52.130;5.570;2023-03-19T09:31:20;38.65;;;25.60;;
78549;SDS011;68091;52.130;5.570;2023-03-19T09:33:46;38.20;;;26.48;;
78549;SDS011;68091;52.130;5.570;2023-03-19T09:36:12;37.55;;;25.30;;
78549;SDS011;68091;52.130;5.570;2023-03-19T09:38:38;40.58;;;25.45;;
78549;SDS011;68091;52.130;5.570;2023-03-19T09:46:17;39.22;;;23.83;;
78549;SDS011;68091;52.130;5.570;2023-03-19T09:49:01;40.55;;;25.75;;
78549;SDS011;68091;52.130;5.570;2023-03-19T09:54:46;36.05;;;23.65;;
78549;SDS011;68091;52.130;5.570;2023-03-19T09:57:16;34.92;;;23.00;;
78549;SDS011;68091;52.130;5.570;2023-03-19T09:59:43;31.48;;;21.52;;
78549;SDS011;68091;52.130;5.570;2023-03-19T10:13:37;34.65;;;21.90;;
78549;SDS011;68091;52.130;5.570;2023-03-19T10:16:08;34.58;;;22.23;;
78549;SDS011;68091;52.130;5.570;2023-03-19T10:18:46;36.53;;;22.02;;
78549;SDS011;68091;52.130;5.570;2023-03-19T10:26:16;35.08;;;23.02;;
78549;SDS011;68091;52.130;5.570;2023-03-19T10:28:45;38.00;;;24.58;;
78549;SDS011;68091;52.130;5.570;2023-03-19T10:31:29;34.50;;;22.92;;
78549;SDS011;68091;52.130;5.570;2023-03-19T10:34:42;39.75;;;25.35;;
78549;SDS011;68091;52.130;5.570;2023-03-19T10:37:00;40.70;;;23.88;;
78549;SDS011;68091;52.130;5.570;2023-03-19T10:39:32;38.67;;;26.13;;
78549;SDS011;68091;52.130;5.570;2023-03-19T10:42:05;40.10;;;25.50;;
78549;SDS011;68091;52.130;5.570;2023-03-19T10:47:52;42.30;;;26.23;;
78549;SDS011;68091;52.130;5.570;2023-03-19T10:50:22;42.03;;;26.40;;
78549;SDS011;68091;52.130;5.570;2023-03-19T10:55:37;38.55;;;25.30;;
78549;SDS011;68091;52.130;5.570;2023-03-19T10:58:19;43.25;;;25.30;;
78549;SDS011;68091;52.130;5.570;2023-03-19T11:00:55;41.92;;;27.05;;
78549;SDS011;68091;52.130;5.570;2023-03-19T11:03:34;40.75;;;25.98;;
78549;SDS011;68091;52.130;5.570;2023-03-19T11:06:24;40.55;;;25.17;;
78549;SDS011;68091;52.130;5.570;2023-03-19T11:11:35;39.15;;;26.33;;
78549;SDS011;68091;52.130;5.570;2023-03-19T11:14:30;38.67;;;26.23;;
78549;SDS011;68091;52.130;5.570;2023-03-19T11:20:12;41.28;;;26.05;;
78549;SDS011;68091;52.130;5.570;2023-03-19T11:22:48;37.08;;;25.23;;
78549;SDS011;68091;52.130;5.570;2023-03-19T11:25:32;39.65;;;25.25;;
78549;SDS011;68091;52.130;5.570;2023-03-19T11:28:08;40.33;;;25.98;;
78549;SDS011;68091;52.130;5.570;2023-03-19T11:39:32;38.40;;;26.38;;
78549;SDS011;68091;52.130;5.570;2023-03-19T11:44:56;38.53;;;24.98;;
78549;SDS011;68091;52.130;5.570;2023-03-19T11:53:37;34.00;;;23.05;;
78549;SDS011;68091;52.130;5.570;2023-03-19T12:22:42;37.95;;;24.75;;
78549;SDS011;68091;52.130;5.570;2023-03-19T12:28:16;44.45;;;27.20;;
78549;SDS011;68091;52.130;5.570;2023-03-19T12:33:51;34.55;;;22.17;;
78549;SDS011;68091;52.130;5.570;2023-03-19T12:36:29;36.15;;;21.83;;
78549;SDS011;68091;52.130;5.570;2023-03-19T12:39:10;35.03;;;22.23;;
78549;SDS011;68091;52.130;5.570;2023-03-19T12:41:40;37.58;;;23.45;;
78549;SDS011;68091;52.130;5.570;2023-03-19T12:46:44;32.63;;;20.38;;
78549;SDS011;68091;52.130;5.570;2023-03-19T12:49:24;33.83;;;20.13;;
78549;SDS011;68091;52.130;5.570;2023-03-19T12:54:59;32.72;;;20.52;;
78549;SDS011;68091;52.130;5.570;2023-03-19T12:57:53;35.88;;;20.33;;
78549;SDS011;68091;52.130;5.570;2023-03-19T13:00:27;34.53;;;20.58;;
78549;SDS011;68091;52.130;5.570;2023-03-19T13:05:42;32.13;;;20.40;;
78549;SDS011;68091;52.130;5.570;2023-03-19T13:08:22;33.35;;;20.20;;
78549;SDS011;68091;52.130;5.570;2023-03-19T13:10:56;31.25;;;19.80;;
78549;SDS011;68091;52.130;5.570;2023-03-19T13:18:45;36.25;;;22.35;;
78549;SDS011;68091;52.130;5.570;2023-03-19T13:21:22;33.83;;;20.83;;
78549;SDS011;68091;52.130;5.570;2023-03-19T13:24:26;32.45;;;18.92;;
78549;SDS011;68091;52.130;5.570;2023-03-19T13:27:02;28.05;;;18.13;;
78549;SDS011;68091;52.130;5.570;2023-03-19T13:29:35;30.10;;;18.83;;
78549;SDS011;68091;52.130;5.570;2023-03-19T13:32:06;32.38;;;20.35;;
78549;SDS011;68091;52.130;5.570;2023-03-19T13:34:47;29.10;;;18.10;;
78549;SDS011;68091;52.130;5.570;2023-03-19T13:37:17;30.92;;;18.77;;
78549;SDS011;68091;52.130;5.570;2023-03-19T13:39:45;29.70;;;17.55;;
78549;SDS011;68091;52.130;5.570;2023-03-19T13:47:55;29.42;;;17.85;;
78549;SDS011;68091;52.130;5.570;2023-03-19T13:50:29;31.50;;;17.08;;
78549;SDS011;68091;52.130;5.570;2023-03-19T13:53:22;26.35;;;16.00;;
78549;SDS011;68091;52.130;5.570;2023-03-19T13:56:07;28.20;;;15.43;;
78549;SDS011;68091;52.130;5.570;2023-03-19T13:58:48;28.75;;;16.73;;
78549;SDS011;68091;52.130;5.570;2023-03-19T14:03:51;26.90;;;16.48;;
78549;SDS011;68091;52.130;5.570;2023-03-19T14:09:04;31.40;;;16.50;;
78549;SDS011;68091;52.130;5.570;2023-03-19T14:11:52;29.88;;;15.85;;
78549;SDS011;68091;52.130;5.570;2023-03-19T14:14:20;31.13;;;14.82;;
78549;SDS011;68091;52.130;5.570;2023-03-19T14:16:48;28.35;;;15.15;;
78549;SDS011;68091;52.130;5.570;2023-03-19T14:19:17;29.75;;;15.43;;
78549;SDS011;68091;52.130;5.570;2023-03-19T14:22:00;30.63;;;15.10;;
78549;SDS011;68091;52.130;5.570;2023-03-19T14:24:34;31.58;;;15.52;;
78549;SDS011;68091;52.130;5.570;2023-03-19T14:27:49;26.98;;;14.73;;
78549;SDS011;68091;52.130;5.570;2023-03-19T14:29:56;26.75;;;15.07;;
78549;SDS011;68091;52.130;5.570;2023-03-19T14:32:32;33.08;;;16.77;;
78549;SDS011;68091;52.130;5.570;2023-03-19T14:35:04;33.83;;;16.52;;
78549;SDS011;68091;52.130;5.570;2023-03-19T14:37:53;29.90;;;16.05;;
78549;SDS011;68091;52.130;5.570;2023-03-19T14:45:59;24.38;;;14.32;;
78549;SDS011;68091;52.130;5.570;2023-03-19T14:51:29;23.30;;;14.07;;
78549;SDS011;68091;52.130;5.570;2023-03-19T14:56:49;27.45;;;15.40;;
78549;SDS011;68091;52.130;5.570;2023-03-19T14:59:15;28.10;;;15.13;;
78549;SDS011;68091;52.130;5.570;2023-03-19T15:01:49;26.90;;;14.90;;
78549;SDS011;68091;52.130;5.570;2023-03-19T15:04:18;31.40;;;17.83;;
78549;SDS011;68091;52.130;5.570;2023-03-19T15:06:54;23.98;;;16.00;;
78549;SDS011;68091;52.130;5.570;2023-03-19T15:09:26;25.83;;;14.73;;
78549;SDS011;68091;52.130;5.570;2023-03-19T15:17:43;26.80;;;14.38;;
78549;SDS011;68091;52.130;5.570;2023-03-19T15:20:19;28.83;;;15.55;;
78549;SDS011;68091;52.130;5.570;2023-03-19T15:22:53;25.23;;;14.32;;
78549;SDS011;68091;52.130;5.570;2023-03-19T15:25:21;23.95;;;15.15;;
78549;SDS011;68091;52.130;5.570;2023-03-19T15:28:02;26.02;;;14.30;;
78549;SDS011;68091;52.130;5.570;2023-03-19T15:30:39;24.55;;;14.98;;
78549;SDS011;68091;52.130;5.570;2023-03-19T15:33:21;26.33;;;15.77;;
78549;SDS011;68091;52.130;5.570;2023-03-19T15:35:55;26.58;;;14.98;;
78549;SDS011;68091;52.130;5.570;2023-03-19T15:38:28;29.40;;;15.38;;
78549;SDS011;68091;52.130;5.570;2023-03-19T15:40:58;25.90;;;14.02;;
78549;SDS011;68091;52.130;5.570;2023-03-19T15:43:26;25.52;;;15.55;;
78549;SDS011;68091;52.130;5.570;2023-03-19T15:45:55;23.63;;;15.23;;
78549;SDS011;68091;52.130;5.570;2023-03-19T15:48:26;22.40;;;13.07;;
78549;SDS011;68091;52.130;5.570;2023-03-19T15:51:03;22.27;;;14.32;;
78549;SDS011;68091;52.130;5.570;2023-03-19T15:53:31;23.90;;;14.18;;
78549;SDS011;68091;52.130;5.570;2023-03-19T15:55:59;25.92;;;13.95;;
78549;SDS011;68091;52.130;5.570;2023-03-19T15:58:28;24.17;;;12.90;;
78549;SDS011;68091;52.130;5.570;2023-03-19T16:00:56;24.17;;;15.07;;
78549;SDS011;68091;52.130;5.570;2023-03-19T16:03:30;28.35;;;16.35;;
78549;SDS011;68091;52.130;5.570;2023-03-19T16:06:19;29.20;;;16.45;;
78549;SDS011;68091;52.130;5.570;2023-03-19T16:08:49;28.45;;;16.42;;
78549;SDS011;68091;52.130;5.570;2023-03-19T16:14:01;33.95;;;17.83;;
78549;SDS011;68091;52.130;5.570;2023-03-19T16:16:45;26.38;;;15.75;;
78549;SDS011;68091;52.130;5.570;2023-03-19T16:21:52;28.88;;;15.15;;
78549;SDS011;68091;52.130;5.570;2023-03-19T16:27:05;26.88;;;16.35;;
78549;SDS011;68091;52.130;5.570;2023-03-19T16:29:42;28.42;;;16.70;;
78549;SDS011;68091;52.130;5.570;2023-03-19T16:32:18;27.30;;;15.55;;
78549;SDS011;68091;52.130;5.570;2023-03-19T16:34:44;27.40;;;16.48;;
78549;SDS011;68091;52.130;5.570;2023-03-19T16:38:13;25.02;;;15.90;;
78549;SDS011;68091;52.130;5.570;2023-03-19T16:42:38;26.58;;;15.10;;
78549;SDS011;68091;52.130;5.570;2023-03-19T16:47:44;26.42;;;16.17;;
78549;SDS011;68091;52.130;5.570;2023-03-19T16:50:10;27.10;;;16.55;;
78549;SDS011;68091;52.130;5.570;2023-03-19T16:52:36;27.38;;;16.80;;
78549;SDS011;68091;52.130;5.570;2023-03-19T16:55:04;32.20;;;17.23;;
78549;SDS011;68091;52.130;5.570;2023-03-19T16:57:43;30.77;;;17.42;;
78549;SDS011;68091;52.130;5.570;2023-03-19T17:00:12;30.88;;;18.38;;
78549;SDS011;68091;52.130;5.570;2023-03-19T17:02:39;30.13;;;17.75;;
78549;SDS011;68091;52.130;5.570;2023-03-19T17:05:15;29.17;;;17.45;;
78549;SDS011;68091;52.130;5.570;2023-03-19T17:07:41;28.73;;;18.88;;
78549;SDS011;68091;52.130;5.570;2023-03-19T17:10:17;32.28;;;18.42;;